Time;durP1;ratioP1;P1;durP2;ratioP2;P2;SDS_P1;SDS_P2;PMS_P1;PMS_P2;Temp;Humidity;BMP_temperature;BMP_pressure;BME280_temperature;BME280_humidity;BME280_pressure;Samples;Min_cycle;Max_cycle;Signal;HPM_P1;HPM_P2
2023/04/28 00:02:17;;;;;;;1.65;1.55;;;19.50;67.40;;;;;;5072218;28;20048;-29
2023/04/28 00:04:44;;;;;;;2.38;1.73;;;18.80;67.00;;;;;;5072431;28;20461;-29
2023/04/28 00:07:11;;;;;;;1.95;1.52;;;;;;;;;;5072398;28;20151;-30
2023/04/28 00:09:38;;;;;;;2.28;2.08;;;19.00;67.20;;;;;;5072172;28;20051;-29
2023/04/28 00:12:05;;;;;;;1.70;1.60;;;18.60;66.20;;;;;;5072035;28;20051;-30
2023/04/28 00:14:33;;;;;;;1.95;1.63;;;18.80;66.60;;;;;;5072098;28;20140;-29
2023/04/28 00:17:02;;;;;;;1.63;1.40;;;18.60;67.00;;;;;;5071981;28;20052;-29
2023/04/28 00:19:29;;;;;;;1.70;1.60;;;18.40;67.00;;;;;;5072029;28;20045;-29
2023/04/28 00:21:55;;;;;;;2.17;1.60;;;18.60;52.40;;;;;;5072260;28;20484;-29
2023/04/28 00:24:22;;;;;;;2.22;1.60;;;18.90;66.30;;;;;;5071835;28;20127;-30
2023/04/28 00:26:49;;;;;;;2.20;1.70;;;18.50;66.50;;;;;;5071805;28;20051;-29
2023/04/28 00:29:16;;;;;;;2.60;1.58;;;19.00;59.50;;;;;;5071918;28;20052;-30
2023/04/28 00:31:44;;;;;;;2.55;1.90;;;18.60;66.70;;;;;;5055834;28;20053;-29
2023/04/28 00:34:13;;;;;;;4.55;1.63;;;19.40;64.30;;;;;;5051704;28;20128;-29
2023/04/28 00:36:40;;;;;;;2.03;1.50;;;;;;;;;;5051399;28;20047;-31
2023/04/28 00:39:07;;;;;;;2.42;1.60;;;19.00;66.40;;;;;;5033811;28;20132;-29
2023/04/28 00:41:34;;;;;;;1.90;1.52;;;18.40;66.90;;;;;;5051773;28;20053;-29
2023/04/28 00:44:01;;;;;;;2.63;1.42;;;18.40;66.20;;;;;;5051721;28;20409;-29
2023/04/28 00:46:29;;;;;;;2.50;1.70;;;18.40;46.90;;;;;;5051791;28;20048;-31
2023/04/28 00:48:57;;;;;;;2.00;1.58;;;18.60;66.40;;;;;;5051562;28;20053;-29
2023/04/28 00:51:24;;;;;;;2.25;1.60;;;18.70;67.30;;;;;;5051743;28;20129;-29
2023/04/28 00:53:51;;;;;;;2.05;1.50;;;17.00;60.60;;;;;;5051410;28;20518;-30
2023/04/28 00:56:17;;;;;;;1.67;1.45;;;19.30;66.80;;;;;;5071158;28;20127;-29
2023/04/28 00:58:44;;;;;;;1.90;1.60;;;;;;;;;;5071712;28;20049;-29
2023/04/28 01:01:11;;;;;;;2.42;1.50;;;18.80;67.40;;;;;;5061864;28;20045;-30
2023/04/28 01:03:39;;;;;;;1.70;1.50;;;19.00;67.60;;;;;;5051440;28;20424;-29
2023/04/28 01:06:07;;;;;;;1.83;1.63;;;18.30;46.90;;;;;;5051589;28;20053;-30
2023/04/28 01:08:35;;;;;;;2.08;1.70;;;18.60;63.90;;;;;;5051361;28;20051;-30
2023/04/28 01:11:02;;;;;;;2.15;1.77;;;18.40;66.70;;;;;;5051525;28;20135;-29
2023/04/28 01:13:28;;;;;;;3.38;1.83;;;18.30;66.70;;;;;;5055250;28;20052;-29
2023/04/28 01:15:55;;;;;;;2.65;1.70;;;;;;;;;;5055396;28;20049;-30
2023/04/28 01:18:22;;;;;;;2.50;1.70;;;19.00;67.20;;;;;;5055340;28;20045;-29
2023/04/28 01:20:49;;;;;;;2.10;1.58;;;18.10;54.10;;;;;;5055577;28;20053;-30
2023/04/28 01:23:17;;;;;;;2.17;1.67;;;17.90;66.00;;;;;;5054993;28;20080;-30
2023/04/28 01:25:45;;;;;;;2.47;1.70;;;18.60;66.60;;;;;;5055206;28;20049;-30
2023/04/28 01:28:12;;;;;;;2.00;1.80;;;19.10;67.60;;;;;;5054984;28;20524;-30
2023/04/28 01:30:38;;;;;;;2.47;1.80;;;17.80;66.30;;;;;;5055195;28;20056;-30
2023/04/28 01:33:05;;;;;;;2.88;1.70;;;;;;;;;;5054879;28;20465;-31
2023/04/28 01:35:32;;;;;;;1.98;1.63;;;18.20;66.50;;;;;;5054997;28;20417;-30
2023/04/28 01:37:59;;;;;;;3.47;1.80;;;18.10;66.90;;;;;;5054439;28;20131;-29
2023/04/28 01:40:26;;;;;;;1.88;1.60;;;17.80;54.50;;;;;;5055069;28;20052;-30
2023/04/28 01:42:54;;;;;;;2.35;1.77;;;18.20;47.00;;;;;;5054911;28;20049;-29
2023/04/28 01:45:21;;;;;;;3.38;1.95;;;18.30;66.70;;;;;;5055137;28;20382;-29
2023/04/28 01:47:47;;;;;;;2.53;1.80;;;17.00;66.00;;;;;;5036974;28;20057;-29
2023/04/28 01:50:14;;;;;;;2.58;1.65;;;;;;;;;;5054755;28;20045;-30
2023/04/28 01:52:41;;;;;;;2.10;1.70;;;18.10;67.00;;;;;;5054903;28;20076;-29
2023/04/28 01:55:08;;;;;;;1.90;1.70;;;18.00;66.70;;;;;;5064806;28;20048;-29
2023/04/28 01:57:35;;;;;;;2.10;1.80;;;17.80;66.80;;;;;;5074700;28;20048;-29
2023/04/28 02:00:04;;;;;;;2.95;1.83;;;18.20;56.60;;;;;;5074520;28;20044;-30
2023/04/28 02:02:31;;;;;;;2.75;1.90;;;18.30;61.70;;;;;;5074445;28;20041;-29
2023/04/28 02:04:57;;;;;;;2.80;2.00;;;19.20;67.30;;;;;;5074507;28;20048;-29
2023/04/28 02:07:24;;;;;;;2.38;1.80;;;18.40;66.90;;;;;;5074710;28;20127;-29
2023/04/28 02:09:51;;;;;;;3.25;2.22;;;17.50;61.50;;;;;;5074371;28;20556;-30
2023/04/28 02:12:17;;;;;;;2.85;2.00;;;18.70;67.40;;;;;;5074002;28;20052;-29
2023/04/28 02:14:44;;;;;;;3.47;2.30;;;18.30;67.20;;;;;;5074478;28;20044;-29
2023/04/28 02:17:12;;;;;;;3.55;2.28;;;19.00;55.20;;;;;;5074046;28;20044;-29
2023/04/28 02:19:39;;;;;;;2.58;2.20;;;17.60;55.90;;;;;;5074174;28;20051;-30
2023/04/28 02:22:06;;;;;;;2.33;2.00;;;;;;;;;;5074350;28;20421;-29
2023/04/28 02:24:35;;;;;;;2.40;2.20;;;17.90;54.60;;;;;;5055081;28;20102;-30
2023/04/28 02:27:02;;;;;;;2.25;2.05;;;18.50;67.00;;;;;;5054171;28;20730;-30
2023/04/28 02:29:29;;;;;;;3.40;2.00;;;16.90;66.50;;;;;;5054000;28;20059;-30
2023/04/28 02:31:56;;;;;;;2.85;2.03;;;18.20;66.90;;;;;;5053766;28;20049;-30
2023/04/28 02:34:24;;;;;;;2.30;2.03;;;18.20;66.90;;;;;;5054026;28;20064;-29
2023/04/28 02:36:51;;;;;;;2.60;2.20;;;;;;;;;;5053790;28;20504;-30
2023/04/28 02:39:20;;;;;;;3.38;2.13;;;17.70;52.10;;;;;;5053799;28;20437;-30
2023/04/28 02:41:46;;;;;;;2.80;2.13;;;17.20;62.80;;;;;;5053897;28;20056;-29
2023/04/28 02:44:13;;;;;;;2.53;2.20;;;16.70;66.60;;;;;;5053524;28;20045;-29
2023/04/28 02:46:40;;;;;;;3.17;2.10;;;;;;;;;;5054032;28;21140;-29
2023/04/28 02:49:07;;;;;;;3.10;2.42;;;16.80;66.60;;;;;;5053756;28;20055;-29
2023/04/28 02:51:35;;;;;;;2.80;2.40;;;17.90;67.70;;;;;;5035922;28;20056;-29
2023/04/28 02:54:02;;;;;;;3.10;2.10;;;17.80;66.80;;;;;;5054036;28;20135;-29
2023/04/28 02:56:29;;;;;;;2.97;2.45;;;18.00;60.50;;;;;;5073813;28;20063;-30
2023/04/28 02:58:56;;;;;;;3.65;2.80;;;;;;;;;;5073470;28;20063;-30
2023/04/28 03:01:23;;;;;;;2.90;2.42;;;17.60;67.60;;;;;;5073732;28;20055;-30
2023/04/28 03:03:50;;;;;;;3.03;2.38;;;17.90;66.90;;;;;;5073197;28;20045;-29
2023/04/28 03:06:16;;;;;;;2.58;2.20;;;17.40;51.50;;;;;;5073336;28;20501;-30
2023/04/28 03:08:45;;;;;;;3.90;2.50;;;18.80;59.50;;;;;;5073313;28;20049;-29
2023/04/28 03:11:11;;;;;;;3.25;2.47;;;17.90;67.20;;;;;;5073233;28;20040;-29
2023/04/28 03:13:38;;;;;;;3.03;2.47;;;18.10;66.90;;;;;;5073047;28;20489;-29
2023/04/28 03:16:06;;;;;;;3.20;2.60;;;19.00;48.50;;;;;;5073267;28;20057;-29
2023/04/28 03:18:33;;;;;;;2.85;2.50;;;18.40;53.60;;;;;;5072608;28;20098;-30
2023/04/28 03:21:00;;;;;;;3.80;2.58;;;17.50;66.70;;;;;;5053030;28;20045;-29
2023/04/28 03:23:27;;;;;;;3.17;2.70;;;;;;;;;;5052880;28;20049;-31
2023/04/28 03:25:55;;;;;;;2.80;2.40;;;17.80;47.30;;;;;;5053061;28;20131;-29
2023/04/28 03:28:22;;;;;;;3.60;2.80;;;16.90;67.40;;;;;;5053216;28;20404;-29
2023/04/28 03:30:48;;;;;;;3.00;2.47;;;16.40;66.70;;;;;;5052905;28;20048;-29
2023/04/28 03:33:16;;;;;;;2.83;2.22;;;;;;;;;;5052657;28;20080;-30
2023/04/28 03:35:42;;;;;;;2.88;2.40;;;18.60;68.40;;;;;;5052441;28;20049;-29
2023/04/28 03:38:09;;;;;;;3.92;2.63;;;18.10;67.40;;;;;;5052159;28;20655;-29
2023/04/28 03:40:36;;;;;;;3.42;2.70;;;17.90;58.80;;;;;;5052393;28;20045;-29
2023/04/28 03:43:04;;;;;;;3.67;2.53;;;16.70;66.60;;;;;;5052609;28;20057;-29
2023/04/28 03:45:31;;;;;;;3.00;2.65;;;;;;;;;;5052793;28;20140;-29
2023/04/28 03:47:58;;;;;;;2.92;2.60;;;17.80;65.10;;;;;;5052575;28;20136;-29
2023/04/28 03:50:25;;;;;;;3.85;2.50;;;17.40;67.40;;;;;;5052558;28;20060;-29
2023/04/28 03:52:51;;;;;;;3.75;2.60;;;16.90;66.80;;;;;;5052151;28;20122;-29
2023/04/28 03:55:18;;;;;;;3.30;2.50;;;;;;;;;;5063692;28;20052;-30
2023/04/28 03:57:45;;;;;;;3.97;2.67;;;16.60;66.60;;;;;;5072516;28;20049;-29
2023/04/28 04:00:14;;;;;;;3.28;2.63;;;17.80;47.50;;;;;;5072554;28;20048;-29
2023/04/28 04:02:41;;;;;;;6.55;2.50;;;17.80;67.40;;;;;;5072244;28;20051;-30
2023/04/28 04:05:08;;;;;;;3.13;2.30;;;17.90;67.10;;;;;;5072149;28;20053;-29
2023/04/28 04:07:34;;;;;;;3.63;2.70;;;17.90;56.40;;;;;;5072707;28;20059;-29
2023/04/28 04:10:02;;;;;;;3.13;2.50;;;;;;;;;;5072005;28;20388;-29
2023/04/28 04:12:29;;;;;;;3.38;2.60;;;;;;;;;;5071915;28;20464;-31
2023/04/28 04:14:55;;;;;;;5.38;2.72;;;18.30;67.20;;;;;;5070822;28;20515;-29
2023/04/28 04:17:23;;;;;;;2.55;2.35;;;17.80;61.30;;;;;;5052087;28;20072;-29
2023/04/28 04:19:50;;;;;;;3.42;2.78;;;17.60;67.30;;;;;;5051905;28;20048;-29
2023/04/28 04:22:17;;;;;;;2.60;2.40;;;17.60;52.40;;;;;;5051936;28;20420;-30
2023/04/28 04:24:43;;;;;;;2.95;2.40;;;18.20;67.20;;;;;;5052183;28;20067;-29
2023/04/28 04:27:10;;;;;;;3.15;2.47;;;17.60;67.90;;;;;;5051873;28;20055;-29
2023/04/28 04:29:37;;;;;;;2.78;2.47;;;;;;;;;;5052023;28;20520;-30
2023/04/28 04:32:04;;;;;;;4.65;2.80;;;17.90;67.10;;;;;;5051741;28;20386;-29
2023/04/28 04:34:32;;;;;;;3.63;2.88;;;17.90;47.40;;;;;;5051893;28;20480;-30
2023/04/28 04:36:59;;;;;;;3.03;2.70;;;;;;;;;;5051160;28;20502;-31
2023/04/28 04:39:27;;;;;;;3.40;2.45;;;;;;;;;;5051965;28;20048;-29
2023/04/28 04:41:54;;;;;;;3.67;2.70;;;;;;;;;;5054079;28;20045;-29
2023/04/28 04:44:21;;;;;;;3.63;2.80;;;17.70;67.20;;;;;;5071576;28;20409;-29
2023/04/28 04:46:48;;;;;;;3.35;2.50;;;;;;;;;;5071052;28;20052;-30
2023/04/28 04:49:14;;;;;;;2.90;2.50;;;16.40;54.50;;;;;;5071677;28;20054;-30
2023/04/28 04:51:43;;;;;;;3.30;2.40;;;17.70;67.20;;;;;;5072234;28;20040;-29
2023/04/28 04:54:10;;;;;;;2.58;2.20;;;16.90;67.60;;;;;;5051470;28;20559;-29
2023/04/28 04:56:36;;;;;;;2.58;2.38;;;17.70;67.20;;;;;;5051820;28;20051;-29
2023/04/28 04:59:03;;;;;;;2.95;2.53;;;18.20;67.70;;;;;;5051473;28;20084;-29
2023/04/28 05:01:30;;;;;;;3.00;2.30;;;;;;;;;;5052123;28;20422;-31
2023/04/28 05:03:57;;;;;;;3.22;2.70;;;18.00;67.30;;;;;;5051278;28;20482;-29
2023/04/28 05:06:23;;;;;;;3.05;2.58;;;17.60;67.90;;;;;;5051837;28;20055;-29
2023/04/28 05:08:51;;;;;;;3.20;2.80;;;17.90;47.50;;;;;;5051379;28;20044;-31
2023/04/28 05:11:18;;;;;;;3.10;2.55;;;;;;;;;;5051728;28;20409;-31
2023/04/28 05:13:45;;;;;;;2.78;2.55;;;17.70;67.30;;;;;;5051515;28;20045;-29
2023/04/28 05:16:12;;;;;;;4.80;2.72;;;17.70;67.00;;;;;;5070476;28;20135;-29
2023/04/28 05:18:39;;;;;;;3.60;2.67;;;;;;;;;;5071041;28;20408;-29
2023/04/28 05:21:06;;;;;;;3.25;2.80;;;18.00;67.50;;;;;;5059919;28;20407;-29
2023/04/28 05:23:33;;;;;;;3.72;2.88;;;18.10;67.50;;;;;;5048419;28;20045;-29
2023/04/28 05:26:02;;;;;;;3.08;2.47;;;17.60;66.80;;;;;;5050852;28;20045;-29
2023/04/28 05:28:29;;;;;;;2.97;2.40;;;;;;;;;;5050484;28;20548;-31
2023/04/28 05:30:56;;;;;;;2.90;2.58;;;18.20;59.40;;;;;;5051287;28;20552;-30
2023/04/28 05:33:23;;;;;;;3.28;2.70;;;17.90;68.00;;;;;;5055847;28;20051;-29
2023/04/28 05:35:50;;;;;;;3.13;2.40;;;18.20;68.10;;;;;;5070515;28;20053;-29
2023/04/28 05:38:17;;;;;;;4.50;2.38;;;;;;;;;;5051281;28;20080;-31
2023/04/28 05:40:44;;;;;;;4.10;2.45;;;17.90;67.50;;;;;;5051012;28;20049;-29
2023/04/28 05:43:12;;;;;;;3.97;2.75;;;18.80;67.80;;;;;;5050932;28;20045;-29
2023/04/28 05:45:39;;;;;;;4.40;2.30;;;;;;;;;;5051435;28;20456;-29
2023/04/28 05:48:06;;;;;;;3.00;2.42;;;18.30;57.40;;;;;;5051020;28;20512;-29
2023/04/28 05:50:33;;;;;;;3.17;2.22;;;18.80;61.40;;;;;;5050879;28;20049;-29
2023/04/28 05:52:59;;;;;;;3.20;2.50;;;16.80;67.00;;;;;;5051036;28;20083;-29
2023/04/28 05:55:26;;;;;;;3.38;2.40;;;17.80;55.00;;;;;;5063593;28;20055;-30
2023/04/28 05:57:53;;;;;;;2.88;2.40;;;17.70;67.20;;;;;;5072120;28;20455;-29
2023/04/28 06:00:21;;;;;;;3.35;2.40;;;18.10;53.40;;;;;;5074892;28;20378;-30
2023/04/28 06:02:48;;;;;;;2.40;2.20;;;18.20;52.60;;;;;;5074053;28;20501;-30
2023/04/28 06:05:15;;;;;;;2.92;2.30;;;17.30;66.90;;;;;;5074692;28;20135;-29
2023/04/28 06:07:41;;;;;;;2.75;2.30;;;19.10;68.10;;;;;;5070755;28;20048;-30
2023/04/28 06:10:09;;;;;;;2.78;2.30;;;18.10;52.10;;;;;;5054304;28;20092;-29
2023/04/28 06:12:36;;;;;;;3.03;2.20;;;17.70;68.20;;;;;;5054441;28;20430;-29
2023/04/28 06:15:03;;;;;;;2.90;2.30;;;18.20;62.70;;;;;;5054124;28;20532;-29
2023/04/28 06:17:32;;;;;;;2.50;2.22;;;18.40;68.40;;;;;;5054293;28;20428;-29
2023/04/28 06:19:59;;;;;;;3.05;2.20;;;;;;;;;;5054245;28;20074;-30
2023/04/28 06:22:25;;;;;;;3.13;2.30;;;18.30;67.30;;;;;;5054033;28;20049;-28
2023/04/28 06:24:52;;;;;;;3.90;2.30;;;18.60;67.40;;;;;;5053688;28;20053;-29
2023/04/28 06:27:19;;;;;;;2.40;2.10;;;18.40;50.70;;;;;;5053829;28;20055;-29
2023/04/28 06:29:46;;;;;;;3.05;2.00;;;18.30;67.50;;;;;;5054082;28;20053;-29
2023/04/28 06:32:13;;;;;;;2.42;1.95;;;;;;;;;;5034187;28;20128;-30
2023/04/28 06:34:41;;;;;;;4.18;1.95;;;18.60;67.00;;;;;;5052515;28;20098;-29
2023/04/28 06:37:08;;;;;;;3.33;2.20;;;18.30;66.70;;;;;;5053260;28;20052;-29
2023/04/28 06:39:35;;;;;;;3.35;2.17;;;19.80;67.30;;;;;;5053779;28;20429;-29
2023/04/28 06:42:02;;;;;;;2.38;1.92;;;;;;;;;;5053595;28;20045;-32
2023/04/28 06:44:30;;;;;;;3.65;1.88;;;;;;;;;;5053674;28;20057;-30
2023/04/28 06:46:56;;;;;;;2.42;1.70;;;19.50;67.00;;;;;;5053846;28;20055;-29
2023/04/28 06:49:23;;;;;;;2.60;1.80;;;;;;;;;;5053685;28;20060;-31
2023/04/28 06:51:51;;;;;;;2.15;1.95;;;19.10;46.80;;;;;;5053424;28;20045;-29
2023/04/28 06:54:18;;;;;;;2.13;1.88;;;18.70;49.70;;;;;;5050062;28;20123;-29
2023/04/28 06:56:45;;;;;;;2.30;1.77;;;19.40;65.90;;;;;;5047801;28;20044;-29
2023/04/28 06:59:12;;;;;;;3.10;2.17;;;;;;;;;;5053496;28;20049;-31
2023/04/28 07:01:38;;;;;;;2.85;1.88;;;19.00;65.80;;;;;;5053251;28;20084;-29
2023/04/28 07:04:06;;;;;;;2.40;2.00;;;;;;;;;;5052032;28;20051;-30
2023/04/28 07:06:32;;;;;;;1.92;1.70;;;19.50;64.20;;;;;;5071349;28;20052;-29
2023/04/28 07:09:00;;;;;;;2.72;1.85;;;19.60;60.50;;;;;;5070686;28;20516;-29
2023/04/28 07:11:27;;;;;;;2.78;1.73;;;;;;;;;;5071287;28;20055;-29
2023/04/28 07:13:54;;;;;;;2.05;1.70;;;;;;;;;;5072085;28;20050;-30
2023/04/28 07:16:21;;;;;;;3.25;1.58;;;20.50;65.50;;;;;;5071865;28;20057;-29
2023/04/28 07:18:48;;;;;;;2.33;1.90;;;20.00;65.00;;;;;;5072920;28;20054;-29
2023/04/28 07:21:15;;;;;;;2.80;1.80;;;18.60;50.30;;;;;;5064927;28;20397;-29
2023/04/28 07:23:43;;;;;;;2.17;1.80;;;;;;;;;;5051819;28;20045;-30
2023/04/28 07:26:11;;;;;;;2.47;1.50;;;19.60;64.90;;;;;;5050253;28;20072;-29
2023/04/28 07:28:37;;;;;;;2.47;1.48;;;21.10;65.30;;;;;;5051357;28;20421;-29
2023/04/28 07:31:04;;;;;;;1.85;1.60;;;19.70;64.50;;;;;;5052429;28;20045;-29
2023/04/28 07:33:31;;;;;;;2.42;1.60;;;19.50;50.90;;;;;;5052057;28;20052;-30
2023/04/28 07:35:57;;;;;;;2.40;1.55;;;20.50;65.10;;;;;;5051659;28;20051;-29
2023/04/28 07:38:24;;;;;;;1.92;1.50;;;20.40;64.40;;;;;;5048824;28;20049;-29
2023/04/28 07:40:51;;;;;;;1.73;1.45;;;20.10;45.50;;;;;;5052076;28;20043;-30
2023/04/28 07:43:19;;;;;;;1.70;1.60;;;20.20;45.50;;;;;;5050887;28;20051;-29
2023/04/28 07:45:48;;;;;;;1.77;1.48;;;;;;;;;;5051148;28;20456;-31
2023/04/28 07:48:15;;;;;;;3.00;1.70;;;20.70;64.30;;;;;;5047635;28;20055;-29
2023/04/28 07:50:42;;;;;;;2.55;1.58;;;;;;;;;;5051973;28;20053;-31
2023/04/28 07:53:09;;;;;;;4.20;1.67;;;20.50;49.50;;;;;;5052651;28;20049;-29
2023/04/28 07:55:36;;;;;;;2.10;1.70;;;20.00;62.00;;;;;;5055672;28;20063;-29
2023/04/28 07:58:03;;;;;;;1.92;1.30;;;;;;;;;;5051620;28;20510;-30
2023/04/28 08:00:31;;;;;;;2.85;1.60;;;20.60;57.40;;;;;;5051539;28;20056;-30
2023/04/28 08:02:58;;;;;;;2.80;1.60;;;20.80;55.50;;;;;;5051475;28;20436;-29
2023/04/28 08:05:25;;;;;;;2.22;1.58;;;20.20;63.60;;;;;;5052480;28;20140;-29
2023/04/28 08:07:51;;;;;;;1.92;1.40;;;20.00;64.30;;;;;;5051708;28;20416;-29
2023/04/28 08:10:18;;;;;;;2.25;1.60;;;19.40;48.40;;;;;;5050494;28;20049;-30
2023/04/28 08:12:45;;;;;;;2.05;1.40;;;21.50;64.00;;;;;;5043513;28;20053;-30
2023/04/28 08:15:11;;;;;;;1.90;1.50;;;21.00;55.30;;;;;;5041516;28;20044;-29
2023/04/28 08:17:40;;;;;;;2.03;1.60;;;20.80;45.10;;;;;;5042357;28;20058;-30
2023/04/28 08:20:08;;;;;;;2.20;1.80;;;19.70;48.40;;;;;;5049233;28;20045;-30
2023/04/28 08:22:35;;;;;;;1.90;1.52;;;20.60;45.30;;;;;;5052193;28;20449;-30
2023/04/28 08:25:01;;;;;;;1.92;1.42;;;21.00;64.50;;;;;;5051864;28;20049;-29
2023/04/28 08:27:29;;;;;;;2.42;1.50;;;;;;;;;;5052218;28;20056;-31
2023/04/28 08:29:55;;;;;;;3.75;1.40;;;20.90;64.10;;;;;;5049900;28;20043;-29
2023/04/28 08:32:22;;;;;;;3.15;1.60;;;20.70;63.20;;;;;;5046140;28;20401;-30
2023/04/28 08:34:50;;;;;;;2.80;1.40;;;21.00;44.90;;;;;;5052011;28;20052;-30
2023/04/28 08:37:17;;;;;;;1.40;1.30;;;;;;;;;;5051253;28;20045;-30
2023/04/28 08:39:44;;;;;;;1.80;1.45;;;;;;;;;;5043691;28;20076;-29
2023/04/28 08:42:11;;;;;;;1.83;1.33;;;;;;;;;;5035499;28;20054;-30
2023/04/28 08:44:38;;;;;;;1.83;1.40;;;20.20;63.10;;;;;;5031598;28;20045;-29
2023/04/28 08:47:07;;;;;;;1.83;1.38;;;20.80;46.00;;;;;;5048042;28;20063;-30
2023/04/28 08:49:35;;;;;;;1.63;1.40;;;20.90;63.00;;;;;;5051771;28;20048;-29
2023/04/28 08:52:03;;;;;;;1.95;1.50;;;21.20;44.70;;;;;;5051621;28;20072;-32
2023/04/28 08:54:31;;;;;;;1.67;1.58;;;21.80;52.90;;;;;;5055993;28;20056;-30
2023/04/28 08:56:58;;;;;;;1.73;1.40;;;;;;;;;;5056629;28;20604;-30
2023/04/28 08:59:25;;;;;;;1.58;1.30;;;21.50;63.40;;;;;;5051098;28;20474;-29
2023/04/28 09:01:52;;;;;;;1.95;1.50;;;;;;;;;;5049571;28;20044;-30
2023/04/28 09:04:19;;;;;;;2.38;1.40;;;21.70;64.00;;;;;;5051016;28;20052;-29
2023/04/28 09:06:46;;;;;;;3.35;1.55;;;;;;;;;;5051038;28;20049;-31
2023/04/28 09:09:21;;;;;;;2.35;1.50;;;21.30;63.70;;;;;;5051157;28;20051;-29
2023/04/28 09:11:52;;;;;;;1.45;1.35;;;21.10;44.60;;;;;;5049262;28;20073;-30
2023/04/28 09:14:19;;;;;;;1.80;1.55;;;20.20;44.50;;;;;;5050956;28;20095;-30
2023/04/28 09:16:46;;;;;;;1.80;1.42;;;20.50;47.10;;;;;;5051730;28;20053;-30
2023/04/28 09:19:12;;;;;;;1.90;1.58;;;21.20;54.20;;;;;;5051147;28;20422;-30
2023/04/28 09:21:47;;;;;;;2.40;1.50;;;20.60;59.60;;;;;;5051335;28;20055;-29
2023/04/28 09:24:38;;;;;;;2.95;1.55;;;20.90;62.90;;;;;;5051164;28;20052;-29
2023/04/28 09:27:09;;;;;;;1.92;1.58;;;20.90;63.30;;;;;;5045383;28;20045;-29
2023/04/28 09:29:36;;;;;;;2.40;1.63;;;19.90;60.30;;;;;;5051383;28;20084;-29
2023/04/28 09:32:15;;;;;;;1.85;1.50;;;20.80;53.10;;;;;;5051203;28;20056;-30
2023/04/28 09:34:45;;;;;;;1.80;1.50;;;20.70;44.70;;;;;;5047957;28;20060;-29
2023/04/28 09:37:15;;;;;;;2.25;1.63;;;20.80;63.20;;;;;;5047952;28;20508;-30
2023/04/28 09:39:42;;;;;;;1.70;1.50;;;21.20;64.30;;;;;;5054679;28;20745;-29
2023/04/28 09:42:10;;;;;;;1.90;1.50;;;21.20;62.00;;;;;;5051917;28;20049;-30
2023/04/28 09:44:37;;;;;;;2.00;1.50;;;20.80;53.10;;;;;;5053395;28;20489;-29
2023/04/28 09:47:19;;;;;;;2.10;1.50;;;20.20;63.30;;;;;;5052935;28;20048;-29
2023/04/28 09:49:53;;;;;;;2.53;1.50;;;20.50;64.30;;;;;;5054922;28;20049;-29
2023/04/28 09:52:20;;;;;;;3.77;1.87;;;21.60;51.20;;;;;;5041156;28;20049;-30
2023/04/28 09:54:48;;;;;;;2.10;1.50;;;;;;;;;;5051004;28;20129;-30
2023/04/28 09:57:16;;;;;;;1.90;1.48;;;20.60;45.10;;;;;;5044072;28;20045;-30
2023/04/28 09:59:43;;;;;;;1.70;1.38;;;;;;;;;;5043215;28;20051;-31
2023/04/28 10:02:10;;;;;;;1.60;1.30;;;;;;;;;;5054707;28;20051;-29
2023/04/28 10:04:37;;;;;;;1.85;1.52;;;;;;;;;;5054216;28;20041;-29
2023/04/28 10:07:04;;;;;;;2.28;1.50;;;19.20;62.80;;;;;;5054660;28;20048;-29
2023/04/28 10:09:31;;;;;;;1.80;1.40;;;19.90;63.90;;;;;;5054281;28;20051;-29
2023/04/28 10:11:58;;;;;;;1.70;1.40;;;20.10;55.70;;;;;;5054357;28;20123;-30
2023/04/28 10:14:26;;;;;;;1.52;1.30;;;20.50;64.60;;;;;;5053628;28;20056;-29
2023/04/28 10:16:53;;;;;;;1.80;1.38;;;20.70;63.90;;;;;;5054356;28;20045;-29
2023/04/28 10:19:20;;;;;;;2.40;1.67;;;19.40;53.10;;;;;;5054252;28;20053;-29
2023/04/28 10:21:51;;;;;;;2.10;1.50;;;20.40;45.30;;;;;;5048683;28;20124;-29
2023/04/28 10:24:21;;;;;;;2.20;1.40;;;20.20;57.60;;;;;;5051210;28;20136;-30
2023/04/28 10:27:05;;;;;;;1.67;1.38;;;20.30;60.10;;;;;;5053781;28;20417;-29
2023/04/28 10:29:33;;;;;;;1.83;1.33;;;19.80;64.40;;;;;;5049991;28;20501;-29
2023/04/28 10:32:31;;;;;;;2.38;1.60;;;20.40;63.80;;;;;;5045941;28;20045;-29
2023/04/28 10:35:38;;;;;;;2.00;1.50;;;20.20;45.40;;;;;;4985905;28;20065;-29
2023/04/28 10:38:05;;;;;;;2.28;1.60;;;20.20;47.60;;;;;;5044137;28;20041;-30
2023/04/28 10:40:32;;;;;;;1.88;1.50;;;19.10;52.80;;;;;;5054031;28;20053;-30
2023/04/28 10:42:59;;;;;;;1.88;1.50;;;;;;;;;;5035794;28;20506;-30
2023/04/28 10:46:07;;;;;;;1.52;1.40;;;20.20;64.10;;;;;;5052519;28;20470;-29
2023/04/28 10:48:56;;;;;;;2.20;1.50;;;19.10;64.10;;;;;;5053869;28;20114;-29
2023/04/28 10:51:30;;;;;;;2.10;1.58;;;20.10;45.70;;;;;;5049768;28;20071;-31
2023/04/28 10:54:19;;;;;;;1.67;1.58;;;20.00;45.70;;;;;;5048804;28;20041;-30
2023/04/28 10:57:20;;;;;;;2.35;1.70;;;20.00;45.70;;;;;;5040991;28;20052;-29
2023/04/28 10:59:48;;;;;;;1.60;1.25;;;20.00;45.90;;;;;;5036239;28;20053;-30
2023/04/28 11:02:45;;;;;;;1.90;1.50;;;20.50;65.60;;;;;;5038739;28;20045;-29
2023/04/28 11:05:17;;;;;;;1.60;1.50;;;19.50;64.20;;;;;;5053631;28;20053;-30
2023/04/28 11:08:30;;;;;;;1.80;1.60;;;20.60;64.80;;;;;;5053072;28;20059;-29
2023/04/28 11:11:16;;;;;;;2.42;1.70;;;20.10;64.70;;;;;;5052984;28;20045;-29
2023/04/28 11:13:45;;;;;;;1.80;1.60;;;20.20;64.80;;;;;;5053175;28;20147;-29
2023/04/28 11:16:14;;;;;;;2.25;1.60;;;19.80;46.50;;;;;;5052784;28;20445;-30
2023/04/28 11:19:04;;;;;;;3.38;2.00;;;20.10;65.10;;;;;;5041707;28;20052;-30
2023/04/28 11:21:31;;;;;;;4.25;1.50;;;18.90;64.30;;;;;;5040534;28;20049;-29
2023/04/28 11:23:58;;;;;;;1.77;1.58;;;19.40;48.10;;;;;;5046613;28;20059;-30
2023/04/28 11:26:25;;;;;;;3.03;1.70;;;19.60;64.70;;;;;;5050236;28;20048;-29
2023/04/28 11:28:52;;;;;;;1.92;1.50;;;18.60;64.10;;;;;;5052277;28;20049;-29
2023/04/28 11:31:20;;;;;;;2.63;1.60;;;20.10;64.90;;;;;;5052418;28;20049;-29
2023/04/28 11:33:49;;;;;;;2.13;1.60;;;18.50;64.10;;;;;;5052165;28;20051;-30
2023/04/28 11:36:23;;;;;;;2.25;1.52;;;19.60;46.20;;;;;;5049832;28;20045;-30
2023/04/28 11:38:50;;;;;;;2.63;1.60;;;20.20;66.90;;;;;;5050411;28;20044;-30
2023/04/28 11:41:17;;;;;;;2.45;1.75;;;18.90;61.50;;;;;;5052753;28;20049;-30
2023/04/28 11:43:43;;;;;;;2.30;1.58;;;19.70;64.90;;;;;;5052849;28;20045;-29
2023/04/28 11:46:10;;;;;;;2.17;1.60;;;19.90;61.50;;;;;;5052325;28;20194;-29
2023/04/28 11:48:37;;;;;;;1.80;1.55;;;19.70;53.30;;;;;;5052780;28;20053;-30
2023/04/28 11:51:05;;;;;;;2.10;1.65;;;19.30;64.90;;;;;;5052410;28;20045;-30
2023/04/28 11:53:42;;;;;;;2.60;1.58;;;19.50;46.40;;;;;;5052517;28;20044;-29
2023/04/28 11:56:09;;;;;;;2.35;1.60;;;19.50;46.50;;;;;;5070584;28;20048;-30
2023/04/28 11:58:36;;;;;;;2.28;1.50;;;20.60;65.70;;;;;;5069199;28;20507;-29
2023/04/28 12:01:09;;;;;;;2.72;1.60;;;19.50;46.50;;;;;;5052416;28;20049;-30
2023/04/28 12:03:43;;;;;;;2.33;1.70;;;18.40;65.00;;;;;;5052109;28;20139;-29
2023/04/28 12:06:11;;;;;;;2.97;1.77;;;19.60;65.00;;;;;;5052496;28;20053;-30
2023/04/28 12:08:38;;;;;;;2.72;1.60;;;19.40;65.60;;;;;;5051354;28;20052;-30
2023/04/28 12:11:09;;;;;;;2.22;1.60;;;19.70;65.50;;;;;;5050051;28;20055;-29
2023/04/28 12:13:37;;;;;;;2.53;1.60;;;19.60;53.30;;;;;;5051340;28;20056;-29
2023/04/28 12:16:04;;;;;;;2.08;1.60;;;19.20;49.60;;;;;;5051862;28;20045;-30
2023/04/28 12:18:31;;;;;;;1.77;1.50;;;19.00;65.40;;;;;;5049697;28;20048;-29
2023/04/28 12:20:58;;;;;;;2.08;1.60;;;19.60;60.10;;;;;;5048110;28;20052;-30
2023/04/28 12:23:33;;;;;;;1.70;1.38;;;19.80;52.80;;;;;;5054569;28;20037;-29
2023/04/28 12:26:00;;;;;;;2.28;1.55;;;;;;;;;;5051558;28;20037;-29
2023/04/28 12:28:36;;;;;;;2.70;1.70;;;19.30;46.60;;;;;;5051109;28;20045;-30
2023/04/28 12:31:04;;;;;;;2.75;1.73;;;19.00;66.00;;;;;;5049739;28;20045;-29
2023/04/28 12:33:32;;;;;;;2.50;1.50;;;19.40;63.80;;;;;;5051180;28;20049;-29
2023/04/28 12:36:00;;;;;;;1.83;1.45;;;19.80;65.70;;;;;;5051136;28;20418;-29
2023/04/28 12:38:27;;;;;;;3.10;1.70;;;19.30;65.40;;;;;;5047038;28;20052;-30
2023/04/28 12:40:55;;;;;;;1.67;1.50;;;19.20;65.40;;;;;;5030988;28;20502;-29
2023/04/28 12:43:22;;;;;;;1.60;1.50;;;19.00;65.30;;;;;;5050366;28;20132;-29
2023/04/28 12:45:49;;;;;;;2.05;1.70;;;19.40;66.30;;;;;;5051705;28;20059;-29
2023/04/28 12:48:16;;;;;;;2.97;1.75;;;;;;;;;;5050976;28;20050;-29
2023/04/28 12:50:43;;;;;;;3.88;1.80;;;19.60;65.00;;;;;;5051339;28;20132;-29
2023/04/28 12:53:10;;;;;;;1.80;1.42;;;19.40;65.60;;;;;;5051652;28;20124;-30
2023/04/28 12:55:37;;;;;;;1.50;1.40;;;20.00;66.30;;;;;;5065688;28;20044;-29
2023/04/28 12:58:05;;;;;;;2.08;1.50;;;18.20;65.00;;;;;;5070151;28;20110;-30
2023/04/28 13:00:32;;;;;;;2.60;1.60;;;19.60;65.80;;;;;;5051489;28;20490;-29
2023/04/28 13:02:59;;;;;;;2.55;1.80;;;;;;;;;;5051435;28;20053;-30
2023/04/28 13:05:26;;;;;;;3.08;1.80;;;19.40;66.10;;;;;;5051554;28;20421;-30
2023/04/28 13:07:53;;;;;;;2.20;1.58;;;19.20;46.90;;;;;;5052581;28;20055;-29
2023/04/28 13:10:22;;;;;;;3.00;1.70;;;19.40;65.70;;;;;;5036219;28;20053;-29
2023/04/28 13:12:48;;;;;;;1.83;1.50;;;19.30;65.80;;;;;;5035273;28;20103;-29